Mammoth, AZ (85618)

12:49 PM MST on Oktober 31, 2014 (GMT -0700)
KAZMAMMO2 | Change Station
CLOSE
Current Station
Personligvejrstation
Location: Mammoth, AZ
Højde: 2600 ft
Vejrstationer i nærheden

Elev 2600 ft 32.70 °N, 110.65 °W | Updated 2 seconds ago

Klart
Klart
87.1 ° F
Føles som 84 ° F
N
8.1
Vind Skiftende Vind Øst
Gusts 8.1 mph

I dag
Høj -- | Lav -- ° F
--% Risiko for nedbør
I går
Høj -- | Lav -- ° F
Precip. -- tommer
6:39 AM 5:32 PM
Første kvartal, 58% visible
Tryk 29.86 tommer
Sigtbarhed 10.0 mil
Skyer Få 18000 ft
Varmeindeks 84 ° F
Dugpunkt 49 ° F
Luftfugtighed 27%
Regnmængde 0.00 tommer
Snedybde Ikke tilgængelig.
UV 6 fra 12
Pollen 5.00 fra 12
Luftkvalitet Ikke tilgængelig.
Flu Activity Ikke tilgængelig.
METAR KDMA 311858Z AUTO 13013KT 10SM FEW180 29/07 A2997 RMK AO2 SLP111 T02880066 $

More Conditions Fewer Conditions

Tryk 29.86 tommer
Sigtbarhed 10.0 mil
Skyer Få 18000 ft
Varmeindeks 84 ° F
Dugpunkt 49 ° F
Luftfugtighed 27%
Regnmængde 0.00 tommer
Snedybde Ikke tilgængelig.
UV 6 fra 12
Pollen 5.00 fra 12
Luftkvalitet Ikke tilgængelig.
Flu Activity Ikke tilgængelig.
METAR KDMA 311858Z AUTO 13013KT 10SM FEW180 29/07 A2997 RMK AO2 SLP111 T02880066 $

More Conditions Fewer Conditions

10-Day Weather Forecast

Almanac

Astronomi

Oct. 31, 2014 Opgang Nedgang
Faktisktidspunkt
Civilttusmørke
Nautisktusmørke
Astronomisktusmørke
Måne
Synligtlys’ længde
Dagens længde
Tomorrow will be .
, % of the Moon is Illuminated

Ekstremer i dag

State Highs State Lows

Community

WunderPhotos

Upload Photos

1,766,711 Billeder uploaded!

WunderBlogs® & News

Nearby

Luftkvalitet

  Luftkvalitet AQ-indeks Forureningskilder
Not available.

Snedybde

Station Depth Højde

Jordskælvsaktivitet

By Distance Mag. Time & Date
Minimum magnitude displayed is 2.5.

Kystnære vandtemperaturer

Sted Temperatur

Vejrstationer i nærheden